sensor_id;sensor_type;location;lat;lon;timestamp;P1;durP1;ratioP1;P2;durP2;ratioP2
32196;SDS011;18697;42.770;23.400;2023-05-17T00:00:07;9.93;;;4.13;;
32196;SDS011;18697;42.770;23.400;2023-05-17T00:02:34;9.68;;;3.33;;
32196;SDS011;18697;42.770;23.400;2023-05-17T00:05:00;7.13;;;3.35;;
32196;SDS011;18697;42.770;23.400;2023-05-17T00:07:25;14.13;;;4.55;;
32196;SDS011;18697;42.770;23.400;2023-05-17T00:09:50;11.70;;;3.70;;
32196;SDS011;18697;42.770;23.400;2023-05-17T00:12:16;11.05;;;4.00;;
32196;SDS011;18697;42.770;23.400;2023-05-17T00:14:41;14.00;;;4.18;;
32196;SDS011;18697;42.770;23.400;2023-05-17T00:17:06;10.18;;;4.35;;
32196;SDS011;18697;42.770;23.400;2023-05-17T00:19:32;7.43;;;4.20;;
32196;SDS011;18697;42.770;23.400;2023-05-17T00:21:57;13.30;;;4.18;;
32196;SDS011;18697;42.770;23.400;2023-05-17T00:24:22;10.57;;;4.13;;
32196;SDS011;18697;42.770;23.400;2023-05-17T00:26:48;12.93;;;4.68;;
32196;SDS011;18697;42.770;23.400;2023-05-17T00:29:13;12.60;;;4.60;;
32196;SDS011;18697;42.770;23.400;2023-05-17T00:31:39;14.40;;;4.10;;
32196;SDS011;18697;42.770;23.400;2023-05-17T00:34:05;11.32;;;4.00;;
32196;SDS011;18697;42.770;23.400;2023-05-17T00:36:30;16.23;;;5.50;;
32196;SDS011;18697;42.770;23.400;2023-05-17T00:38:55;14.48;;;5.53;;
32196;SDS011;18697;42.770;23.400;2023-05-17T00:41:21;11.13;;;5.07;;
32196;SDS011;18697;42.770;23.400;2023-05-17T00:43:46;17.60;;;5.50;;
32196;SDS011;18697;42.770;23.400;2023-05-17T00:46:12;15.80;;;6.28;;
32196;SDS011;18697;42.770;23.400;2023-05-17T00:48:37;14.32;;;5.97;;
32196;SDS011;18697;42.770;23.400;2023-05-17T00:51:03;16.40;;;6.55;;
32196;SDS011;18697;42.770;23.400;2023-05-17T00:53:28;21.20;;;6.47;;
32196;SDS011;18697;42.770;23.400;2023-05-17T00:55:54;13.18;;;6.18;;
32196;SDS011;18697;42.770;23.400;2023-05-17T00:58:20;13.02;;;5.80;;
32196;SDS011;18697;42.770;23.400;2023-05-17T01:00:47;15.00;;;6.43;;
32196;SDS011;18697;42.770;23.400;2023-05-17T01:03:13;13.23;;;6.75;;
32196;SDS011;18697;42.770;23.400;2023-05-17T01:05:38;18.63;;;7.30;;
32196;SDS011;18697;42.770;23.400;2023-05-17T01:08:04;18.77;;;6.57;;
32196;SDS011;18697;42.770;23.400;2023-05-17T01:10:34;15.27;;;6.93;;
32196;SDS011;18697;42.770;23.400;2023-05-17T01:13:08;18.73;;;6.45;;
32196;SDS011;18697;42.770;23.400;2023-05-17T01:15:40;20.30;;;6.30;;
32196;SDS011;18697;42.770;23.400;2023-05-17T01:21:16;14.68;;;5.57;;
32196;SDS011;18697;42.770;23.400;2023-05-17T01:24:15;13.82;;;5.82;;
32196;SDS011;18697;42.770;23.400;2023-05-17T01:26:47;14.10;;;5.75;;
32196;SDS011;18697;42.770;23.400;2023-05-17T01:29:15;12.90;;;6.18;;
32196;SDS011;18697;42.770;23.400;2023-05-17T01:31:42;10.15;;;5.70;;
32196;SDS011;18697;42.770;23.400;2023-05-17T01:34:08;12.52;;;6.00;;
32196;SDS011;18697;42.770;23.400;2023-05-17T01:36:34;13.48;;;5.93;;
32196;SDS011;18697;42.770;23.400;2023-05-17T01:39:02;16.95;;;5.85;;
32196;SDS011;18697;42.770;23.400;2023-05-17T01:46:39;14.07;;;8.32;;
32196;SDS011;18697;42.770;23.400;2023-05-17T01:51:44;25.83;;;10.35;;
32196;SDS011;18697;42.770;23.400;2023-05-17T01:54:13;16.65;;;11.18;;
32196;SDS011;18697;42.770;23.400;2023-05-17T01:56:45;18.35;;;9.90;;
32196;SDS011;18697;42.770;23.400;2023-05-17T01:59:14;19.70;;;8.75;;
32196;SDS011;18697;42.770;23.400;2023-05-17T02:01:46;16.33;;;8.95;;
32196;SDS011;18697;42.770;23.400;2023-05-17T02:04:13;18.40;;;8.80;;
32196;SDS011;18697;42.770;23.400;2023-05-17T02:06:38;18.92;;;8.48;;
32196;SDS011;18697;42.770;23.400;2023-05-17T02:09:04;16.15;;;10.23;;
32196;SDS011;18697;42.770;23.400;2023-05-17T02:11:29;16.75;;;9.75;;
32196;SDS011;18697;42.770;23.400;2023-05-17T02:13:56;20.92;;;10.23;;
32196;SDS011;18697;42.770;23.400;2023-05-17T02:16:22;25.95;;;12.27;;
32196;SDS011;18697;42.770;23.400;2023-05-17T02:18:48;22.40;;;12.60;;
32196;SDS011;18697;42.770;23.400;2023-05-17T02:21:13;19.67;;;11.65;;
32196;SDS011;18697;42.770;23.400;2023-05-17T02:23:39;15.77;;;11.25;;
32196;SDS011;18697;42.770;23.400;2023-05-17T02:26:04;19.92;;;11.00;;
32196;SDS011;18697;42.770;23.400;2023-05-17T02:28:30;16.45;;;10.85;;
32196;SDS011;18697;42.770;23.400;2023-05-17T02:30:55;16.42;;;10.43;;
32196;SDS011;18697;42.770;23.400;2023-05-17T02:33:21;20.38;;;10.73;;
32196;SDS011;18697;42.770;23.400;2023-05-17T02:35:49;20.25;;;10.18;;
32196;SDS011;18697;42.770;23.400;2023-05-17T02:38:15;20.23;;;11.45;;
32196;SDS011;18697;42.770;23.400;2023-05-17T02:40:40;17.05;;;10.23;;
32196;SDS011;18697;42.770;23.400;2023-05-17T02:43:06;17.88;;;11.27;;
32196;SDS011;18697;42.770;23.400;2023-05-17T02:45:31;17.42;;;9.68;;
32196;SDS011;18697;42.770;23.400;2023-05-17T02:47:57;19.45;;;11.10;;
32196;SDS011;18697;42.770;23.400;2023-05-17T02:50:22;16.73;;;9.65;;
32196;SDS011;18697;42.770;23.400;2023-05-17T02:52:47;14.20;;;9.65;;
32196;SDS011;18697;42.770;23.400;2023-05-17T02:57:38;19.17;;;10.15;;
32196;SDS011;18697;42.770;23.400;2023-05-17T03:00:04;15.00;;;8.52;;
32196;SDS011;18697;42.770;23.400;2023-05-17T03:02:30;17.45;;;9.48;;
32196;SDS011;18697;42.770;23.400;2023-05-17T03:04:56;22.75;;;10.02;;
32196;SDS011;18697;42.770;23.400;2023-05-17T03:07:21;20.75;;;9.52;;
32196;SDS011;18697;42.770;23.400;2023-05-17T03:09:46;17.58;;;9.80;;
32196;SDS011;18697;42.770;23.400;2023-05-17T03:12:12;16.90;;;8.65;;
32196;SDS011;18697;42.770;23.400;2023-05-17T03:14:37;21.98;;;8.48;;
32196;SDS011;18697;42.770;23.400;2023-05-17T03:17:03;15.00;;;8.43;;
32196;SDS011;18697;42.770;23.400;2023-05-17T03:19:28;26.30;;;11.30;;
32196;SDS011;18697;42.770;23.400;2023-05-17T03:21:53;18.75;;;9.57;;
32196;SDS011;18697;42.770;23.400;2023-05-17T03:24:19;18.90;;;9.88;;
32196;SDS011;18697;42.770;23.400;2023-05-17T03:26:44;22.52;;;11.18;;
32196;SDS011;18697;42.770;23.400;2023-05-17T03:29:10;34.95;;;14.32;;
32196;SDS011;18697;42.770;23.400;2023-05-17T03:31:35;34.15;;;14.38;;
32196;SDS011;18697;42.770;23.400;2023-05-17T03:34:01;22.85;;;12.13;;
32196;SDS011;18697;42.770;23.400;2023-05-17T03:36:26;21.40;;;11.93;;
32196;SDS011;18697;42.770;23.400;2023-05-17T03:38:51;23.13;;;12.10;;
32196;SDS011;18697;42.770;23.400;2023-05-17T03:41:17;25.17;;;12.15;;
32196;SDS011;18697;42.770;23.400;2023-05-17T03:43:42;20.20;;;11.52;;
32196;SDS011;18697;42.770;23.400;2023-05-17T03:46:08;22.67;;;11.88;;
32196;SDS011;18697;42.770;23.400;2023-05-17T03:48:33;22.08;;;12.73;;
32196;SDS011;18697;42.770;23.400;2023-05-17T03:50:59;20.27;;;14.60;;
32196;SDS011;18697;42.770;23.400;2023-05-17T03:53:24;24.58;;;15.32;;
32196;SDS011;18697;42.770;23.400;2023-05-17T03:55:50;27.85;;;16.50;;
32196;SDS011;18697;42.770;23.400;2023-05-17T03:58:15;26.27;;;16.20;;
32196;SDS011;18697;42.770;23.400;2023-05-17T04:00:40;31.38;;;17.88;;
32196;SDS011;18697;42.770;23.400;2023-05-17T04:03:06;24.45;;;17.98;;
32196;SDS011;18697;42.770;23.400;2023-05-17T04:07:57;29.85;;;18.05;;
32196;SDS011;18697;42.770;23.400;2023-05-17T04:10:22;31.25;;;18.55;;
32196;SDS011;18697;42.770;23.400;2023-05-17T04:12:48;32.28;;;18.80;;
32196;SDS011;18697;42.770;23.400;2023-05-17T04:15:14;30.17;;;18.42;;
32196;SDS011;18697;42.770;23.400;2023-05-17T04:17:39;33.53;;;19.83;;
32196;SDS011;18697;42.770;23.400;2023-05-17T04:20:04;35.67;;;20.42;;
32196;SDS011;18697;42.770;23.400;2023-05-17T04:22:30;26.05;;;19.02;;
32196;SDS011;18697;42.770;23.400;2023-05-17T04:24:56;31.40;;;20.35;;
32196;SDS011;18697;42.770;23.400;2023-05-17T04:27:22;28.73;;;20.65;;
32196;SDS011;18697;42.770;23.400;2023-05-17T04:29:47;34.25;;;21.85;;
32196;SDS011;18697;42.770;23.400;2023-05-17T04:32:13;42.13;;;24.67;;
32196;SDS011;18697;42.770;23.400;2023-05-17T04:34:38;35.50;;;23.40;;
32196;SDS011;18697;42.770;23.400;2023-05-17T04:37:04;30.65;;;20.95;;
32196;SDS011;18697;42.770;23.400;2023-05-17T04:39:30;29.05;;;19.98;;
32196;SDS011;18697;42.770;23.400;2023-05-17T04:44:20;34.65;;;18.80;;
32196;SDS011;18697;42.770;23.400;2023-05-17T04:46:46;31.02;;;20.02;;
32196;SDS011;18697;42.770;23.400;2023-05-17T04:51:36;31.80;;;19.73;;
32196;SDS011;18697;42.770;23.400;2023-05-17T04:54:02;34.15;;;20.58;;
32196;SDS011;18697;42.770;23.400;2023-05-17T04:56:31;32.13;;;20.55;;
32196;SDS011;18697;42.770;23.400;2023-05-17T04:58:57;37.50;;;21.17;;
32196;SDS011;18697;42.770;23.400;2023-05-17T05:01:22;27.30;;;19.95;;
32196;SDS011;18697;42.770;23.400;2023-05-17T05:03:48;33.08;;;20.02;;
32196;SDS011;18697;42.770;23.400;2023-05-17T05:06:13;33.35;;;21.30;;
32196;SDS011;18697;42.770;23.400;2023-05-17T05:08:40;37.15;;;20.40;;
32196;SDS011;18697;42.770;23.400;2023-05-17T05:11:06;32.80;;;18.83;;
32196;SDS011;18697;42.770;23.400;2023-05-17T05:13:31;28.75;;;18.48;;
32196;SDS011;18697;42.770;23.400;2023-05-17T05:15:57;31.27;;;20.35;;
32196;SDS011;18697;42.770;23.400;2023-05-17T05:18:22;37.80;;;20.58;;
32196;SDS011;18697;42.770;23.400;2023-05-17T05:20:47;29.15;;;17.85;;
32196;SDS011;18697;42.770;23.400;2023-05-17T05:23:13;29.38;;;18.48;;
32196;SDS011;18697;42.770;23.400;2023-05-17T05:25:38;27.30;;;18.85;;
32196;SDS011;18697;42.770;23.400;2023-05-17T05:28:04;32.30;;;18.48;;
32196;SDS011;18697;42.770;23.400;2023-05-17T05:30:30;35.03;;;19.20;;
32196;SDS011;18697;42.770;23.400;2023-05-17T05:32:56;33.05;;;19.40;;
32196;SDS011;18697;42.770;23.400;2023-05-17T05:35:22;32.40;;;18.90;;
32196;SDS011;18697;42.770;23.400;2023-05-17T05:37:53;40.42;;;18.73;;
32196;SDS011;18697;42.770;23.400;2023-05-17T05:40:19;26.35;;;17.83;;
32196;SDS011;18697;42.770;23.400;2023-05-17T05:42:45;26.38;;;17.20;;
32196;SDS011;18697;42.770;23.400;2023-05-17T05:45:10;30.67;;;17.27;;
32196;SDS011;18697;42.770;23.400;2023-05-17T05:47:36;33.10;;;19.25;;
32196;SDS011;18697;42.770;23.400;2023-05-17T05:50:01;26.02;;;18.00;;
32196;SDS011;18697;42.770;23.400;2023-05-17T05:52:27;32.92;;;18.65;;
32196;SDS011;18697;42.770;23.400;2023-05-17T05:54:52;24.55;;;16.35;;
32196;SDS011;18697;42.770;23.400;2023-05-17T05:57:18;24.95;;;15.93;;
32196;SDS011;18697;42.770;23.400;2023-05-17T05:59:43;27.98;;;16.35;;
32196;SDS011;18697;42.770;23.400;2023-05-17T06:02:08;25.70;;;16.90;;
32196;SDS011;18697;42.770;23.400;2023-05-17T06:04:34;28.60;;;17.48;;
32196;SDS011;18697;42.770;23.400;2023-05-17T06:07:00;27.08;;;17.90;;
32196;SDS011;18697;42.770;23.400;2023-05-17T06:09:26;28.75;;;16.60;;
32196;SDS011;18697;42.770;23.400;2023-05-17T06:11:51;21.52;;;15.68;;
32196;SDS011;18697;42.770;23.400;2023-05-17T06:14:17;33.40;;;16.92;;
32196;SDS011;18697;42.770;23.400;2023-05-17T06:16:43;26.75;;;16.27;;
32196;SDS011;18697;42.770;23.400;2023-05-17T06:19:08;29.10;;;16.65;;
32196;SDS011;18697;42.770;23.400;2023-05-17T06:21:33;24.10;;;15.60;;
32196;SDS011;18697;42.770;23.400;2023-05-17T06:23:59;29.05;;;15.70;;
32196;SDS011;18697;42.770;23.400;2023-05-17T06:26:24;28.05;;;15.43;;
32196;SDS011;18697;42.770;23.400;2023-05-17T06:28:50;28.13;;;16.98;;
32196;SDS011;18697;42.770;23.400;2023-05-17T06:31:15;27.40;;;15.43;;
32196;SDS011;18697;42.770;23.400;2023-05-17T06:33:40;24.65;;;14.73;;
32196;SDS011;18697;42.770;23.400;2023-05-17T06:36:06;25.00;;;15.52;;
32196;SDS011;18697;42.770;23.400;2023-05-17T06:38:31;24.52;;;14.57;;
32196;SDS011;18697;42.770;23.400;2023-05-17T06:40:56;25.75;;;14.48;;
32196;SDS011;18697;42.770;23.400;2023-05-17T06:43:22;31.58;;;14.88;;
32196;SDS011;18697;42.770;23.400;2023-05-17T06:45:48;23.73;;;15.45;;
32196;SDS011;18697;42.770;23.400;2023-05-17T06:48:13;22.35;;;14.35;;
32196;SDS011;18697;42.770;23.400;2023-05-17T06:50:39;24.48;;;14.82;;
32196;SDS011;18697;42.770;23.400;2023-05-17T06:53:05;25.98;;;14.85;;
32196;SDS011;18697;42.770;23.400;2023-05-17T06:55:31;28.83;;;14.43;;
32196;SDS011;18697;42.770;23.400;2023-05-17T06:57:56;28.00;;;14.30;;
32196;SDS011;18697;42.770;23.400;2023-05-17T07:00:24;27.27;;;14.52;;
32196;SDS011;18697;42.770;23.400;2023-05-17T07:02:49;25.35;;;14.65;;
32196;SDS011;18697;42.770;23.400;2023-05-17T07:05:14;21.65;;;13.52;;
32196;SDS011;18697;42.770;23.400;2023-05-17T07:07:40;23.85;;;13.73;;
32196;SDS011;18697;42.770;23.400;2023-05-17T07:10:05;23.27;;;13.07;;
32196;SDS011;18697;42.770;23.400;2023-05-17T07:12:31;23.85;;;14.90;;
32196;SDS011;18697;42.770;23.400;2023-05-17T07:14:57;26.70;;;13.73;;
32196;SDS011;18697;42.770;23.400;2023-05-17T07:17:23;26.88;;;14.32;;
32196;SDS011;18697;42.770;23.400;2023-05-17T07:19:48;26.15;;;14.52;;
32196;SDS011;18697;42.770;23.400;2023-05-17T07:22:15;20.77;;;13.15;;
32196;SDS011;18697;42.770;23.400;2023-05-17T07:24:42;29.02;;;13.90;;
32196;SDS011;18697;42.770;23.400;2023-05-17T07:27:08;22.95;;;13.65;;
32196;SDS011;18697;42.770;23.400;2023-05-17T07:29:33;31.10;;;14.57;;
32196;SDS011;18697;42.770;23.400;2023-05-17T07:31:58;25.77;;;14.13;;
32196;SDS011;18697;42.770;23.400;2023-05-17T07:34:24;31.95;;;14.93;;
32196;SDS011;18697;42.770;23.400;2023-05-17T07:36:49;24.77;;;13.40;;
32196;SDS011;18697;42.770;23.400;2023-05-17T07:39:15;29.70;;;15.35;;
32196;SDS011;18697;42.770;23.400;2023-05-17T07:41:40;28.25;;;16.38;;
32196;SDS011;18697;42.770;23.400;2023-05-17T07:44:05;26.02;;;15.65;;
32196;SDS011;18697;42.770;23.400;2023-05-17T07:46:31;31.63;;;15.13;;
32196;SDS011;18697;42.770;23.400;2023-05-17T07:48:56;26.08;;;16.10;;
32196;SDS011;18697;42.770;23.400;2023-05-17T07:51:22;29.95;;;14.93;;
32196;SDS011;18697;42.770;23.400;2023-05-17T07:53:47;26.38;;;14.63;;
32196;SDS011;18697;42.770;23.400;2023-05-17T07:56:12;33.13;;;15.13;;
32196;SDS011;18697;42.770;23.400;2023-05-17T07:58:38;24.25;;;13.95;;
32196;SDS011;18697;42.770;23.400;2023-05-17T08:01:03;28.90;;;13.88;;
32196;SDS011;18697;42.770;23.400;2023-05-17T08:03:29;32.58;;;15.52;;
32196;SDS011;18697;42.770;23.400;2023-05-17T08:05:55;23.23;;;13.60;;
32196;SDS011;18697;42.770;23.400;2023-05-17T08:08:20;26.20;;;14.10;;
32196;SDS011;18697;42.770;23.400;2023-05-17T08:10:46;26.42;;;14.45;;
32196;SDS011;18697;42.770;23.400;2023-05-17T08:13:11;30.15;;;14.52;;
32196;SDS011;18697;42.770;23.400;2023-05-17T08:15:37;31.60;;;14.85;;
32196;SDS011;18697;42.770;23.400;2023-05-17T08:18:02;28.35;;;13.00;;
32196;SDS011;18697;42.770;23.400;2023-05-17T08:20:27;29.80;;;14.18;;
32196;SDS011;18697;42.770;23.400;2023-05-17T08:22:53;23.90;;;13.40;;
32196;SDS011;18697;42.770;23.400;2023-05-17T08:25:18;23.90;;;14.75;;
32196;SDS011;18697;42.770;23.400;2023-05-17T08:27:45;23.73;;;12.85;;
32196;SDS011;18697;42.770;23.400;2023-05-17T08:30:10;22.80;;;13.02;;
32196;SDS011;18697;42.770;23.400;2023-05-17T08:32:36;24.25;;;12.48;;
32196;SDS011;18697;42.770;23.400;2023-05-17T08:35:01;25.77;;;11.75;;
32196;SDS011;18697;42.770;23.400;2023-05-17T08:37:28;25.23;;;11.88;;
32196;SDS011;18697;42.770;23.400;2023-05-17T08:39:53;20.70;;;11.82;;
32196;SDS011;18697;42.770;23.400;2023-05-17T08:42:20;25.50;;;11.63;;
32196;SDS011;18697;42.770;23.400;2023-05-17T08:44:49;19.85;;;10.55;;
32196;SDS011;18697;42.770;23.400;2023-05-17T08:47:15;32.33;;;12.50;;
32196;SDS011;18697;42.770;23.400;2023-05-17T08:49:50;19.35;;;10.82;;
32196;SDS011;18697;42.770;23.400;2023-05-17T08:52:17;22.20;;;11.55;;
32196;SDS011;18697;42.770;23.400;2023-05-17T08:54:42;32.97;;;12.02;;
32196;SDS011;18697;42.770;23.400;2023-05-17T08:57:07;27.95;;;11.32;;
32196;SDS011;18697;42.770;23.400;2023-05-17T08:59:35;26.30;;;12.07;;
32196;SDS011;18697;42.770;23.400;2023-05-17T09:02:02;23.83;;;11.25;;
32196;SDS011;18697;42.770;23.400;2023-05-17T09:04:29;22.02;;;10.82;;
32196;SDS011;18697;42.770;23.400;2023-05-17T09:06:55;23.80;;;11.18;;
32196;SDS011;18697;42.770;23.400;2023-05-17T09:09:21;22.55;;;11.80;;
32196;SDS011;18697;42.770;23.400;2023-05-17T09:11:47;23.83;;;11.57;;
32196;SDS011;18697;42.770;23.400;2023-05-17T09:14:13;22.35;;;11.75;;
32196;SDS011;18697;42.770;23.400;2023-05-17T09:16:41;22.05;;;11.45;;
32196;SDS011;18697;42.770;23.400;2023-05-17T09:19:08;20.67;;;11.52;;
32196;SDS011;18697;42.770;23.400;2023-05-17T09:21:44;21.02;;;11.27;;
32196;SDS011;18697;42.770;23.400;2023-05-17T09:24:12;27.58;;;11.75;;
32196;SDS011;18697;42.770;23.400;2023-05-17T09:29:11;29.55;;;11.95;;
32196;SDS011;18697;42.770;23.400;2023-05-17T09:31:38;21.95;;;11.23;;
32196;SDS011;18697;42.770;23.400;2023-05-17T09:34:04;21.95;;;11.40;;
32196;SDS011;18697;42.770;23.400;2023-05-17T09:36:32;23.98;;;11.15;;
32196;SDS011;18697;42.770;23.400;2023-05-17T09:39:00;28.33;;;11.23;;
32196;SDS011;18697;42.770;23.400;2023-05-17T09:41:32;22.67;;;12.02;;
32196;SDS011;18697;42.770;23.400;2023-05-17T09:44:10;20.73;;;11.07;;
32196;SDS011;18697;42.770;23.400;2023-05-17T09:46:38;23.98;;;11.27;;
32196;SDS011;18697;42.770;23.400;2023-05-17T09:49:06;22.45;;;10.15;;
32196;SDS011;18697;42.770;23.400;2023-05-17T09:51:43;22.23;;;11.70;;
32196;SDS011;18697;42.770;23.400;2023-05-17T09:54:10;26.25;;;11.00;;
32196;SDS011;18697;42.770;23.400;2023-05-17T09:56:36;23.08;;;9.90;;
32196;SDS011;18697;42.770;23.400;2023-05-17T09:59:03;19.70;;;10.27;;
32196;SDS011;18697;42.770;23.400;2023-05-17T10:01:34;22.25;;;10.45;;
32196;SDS011;18697;42.770;23.400;2023-05-17T10:04:04;25.75;;;10.52;;
32196;SDS011;18697;42.770;23.400;2023-05-17T10:06:32;21.33;;;9.38;;
32196;SDS011;18697;42.770;23.400;2023-05-17T10:08:59;21.20;;;10.45;;
32196;SDS011;18697;42.770;23.400;2023-05-17T10:11:27;24.50;;;9.73;;
32196;SDS011;18697;42.770;23.400;2023-05-17T10:16:50;21.85;;;9.85;;
32196;SDS011;18697;42.770;23.400;2023-05-17T10:19:17;17.00;;;9.10;;
32196;SDS011;18697;42.770;23.400;2023-05-17T10:21:46;18.33;;;9.75;;
32196;SDS011;18697;42.770;23.400;2023-05-17T10:24:12;24.73;;;9.93;;
32196;SDS011;18697;42.770;23.400;2023-05-17T10:26:40;21.42;;;10.57;;
32196;SDS011;18697;42.770;23.400;2023-05-17T10:29:06;18.48;;;9.15;;
32196;SDS011;18697;42.770;23.400;2023-05-17T10:31:32;17.98;;;9.38;;
32196;SDS011;18697;42.770;23.400;2023-05-17T10:34:01;22.80;;;9.75;;
32196;SDS011;18697;42.770;23.400;2023-05-17T10:36:29;18.52;;;9.02;;
32196;SDS011;18697;42.770;23.400;2023-05-17T10:38:55;19.05;;;9.88;;
32196;SDS011;18697;42.770;23.400;2023-05-17T10:41:21;15.77;;;9.23;;
32196;SDS011;18697;42.770;23.400;2023-05-17T10:43:52;24.67;;;11.27;;
32196;SDS011;18697;42.770;23.400;2023-05-17T10:46:19;23.50;;;9.95;;
32196;SDS011;18697;42.770;23.400;2023-05-17T10:48:49;20.85;;;9.40;;
32196;SDS011;18697;42.770;23.400;2023-05-17T10:51:48;23.63;;;9.77;;
32196;SDS011;18697;42.770;23.400;2023-05-17T10:54:07;20.55;;;9.32;;
32196;SDS011;18697;42.770;23.400;2023-05-17T10:56:33;20.10;;;9.48;;
32196;SDS011;18697;42.770;23.400;2023-05-17T11:01:57;18.15;;;9.35;;
32196;SDS011;18697;42.770;23.400;2023-05-17T11:04:26;18.25;;;9.57;;
32196;SDS011;18697;42.770;23.400;2023-05-17T11:09:44;22.38;;;8.98;;
32196;SDS011;18697;42.770;23.400;2023-05-17T11:12:13;18.23;;;9.45;;
32196;SDS011;18697;42.770;23.400;2023-05-17T11:14:52;20.60;;;8.98;;
32196;SDS011;18697;42.770;23.400;2023-05-17T11:17:25;16.17;;;9.10;;
32196;SDS011;18697;42.770;23.400;2023-05-17T11:20:08;25.40;;;8.57;;
32196;SDS011;18697;42.770;23.400;2023-05-17T11:23:04;20.67;;;9.68;;
32196;SDS011;18697;42.770;23.400;2023-05-17T11:25:35;24.30;;;10.15;;
32196;SDS011;18697;42.770;23.400;2023-05-17T11:28:18;28.90;;;10.18;;
32196;SDS011;18697;42.770;23.400;2023-05-17T11:30:45;22.35;;;9.95;;
32196;SDS011;18697;42.770;23.400;2023-05-17T11:33:18;24.00;;;10.13;;
32196;SDS011;18697;42.770;23.400;2023-05-17T11:35:45;24.67;;;10.85;;
32196;SDS011;18697;42.770;23.400;2023-05-17T11:38:15;18.70;;;10.50;;
32196;SDS011;18697;42.770;23.400;2023-05-17T11:40:43;23.23;;;10.40;;
32196;SDS011;18697;42.770;23.400;2023-05-17T11:43:11;23.52;;;11.50;;
32196;SDS011;18697;42.770;23.400;2023-05-17T11:45:53;19.02;;;9.82;;
32196;SDS011;18697;42.770;23.400;2023-05-17T11:48:21;18.50;;;9.73;;
32196;SDS011;18697;42.770;23.400;2023-05-17T11:50:48;21.75;;;9.48;;
32196;SDS011;18697;42.770;23.400;2023-05-17T11:53:15;19.05;;;9.15;;
32196;SDS011;18697;42.770;23.400;2023-05-17T11:55:42;16.65;;;10.00;;
32196;SDS011;18697;42.770;23.400;2023-05-17T11:58:12;15.95;;;9.57;;
32196;SDS011;18697;42.770;23.400;2023-05-17T12:00:39;21.38;;;10.10;;
32196;SDS011;18697;42.770;23.400;2023-05-17T12:03:18;17.98;;;9.38;;
32196;SDS011;18697;42.770;23.400;2023-05-17T12:05:50;16.88;;;8.57;;
32196;SDS011;18697;42.770;23.400;2023-05-17T12:10:51;10.65;;;6.05;;
32196;SDS011;18697;42.770;23.400;2023-05-17T12:13:17;12.82;;;6.05;;
32196;SDS011;18697;42.770;23.400;2023-05-17T12:15:44;7.18;;;4.75;;
32196;SDS011;18697;42.770;23.400;2023-05-17T12:18:15;3.88;;;3.38;;
32196;SDS011;18697;42.770;23.400;2023-05-17T12:20:56;7.97;;;3.53;;
32196;SDS011;18697;42.770;23.400;2023-05-17T12:26:10;8.50;;;4.00;;
32196;SDS011;18697;42.770;23.400;2023-05-17T12:34:03;8.35;;;3.47;;
32196;SDS011;18697;42.770;23.400;2023-05-17T12:36:29;6.72;;;3.38;;
32196;SDS011;18697;42.770;23.400;2023-05-17T12:38:57;9.18;;;4.10;;
32196;SDS011;18697;42.770;23.400;2023-05-17T12:41:23;10.05;;;3.75;;
32196;SDS011;18697;42.770;23.400;2023-05-17T12:43:52;9.20;;;3.97;;
32196;SDS011;18697;42.770;23.400;2023-05-17T12:46:20;10.32;;;3.15;;
32196;SDS011;18697;42.770;23.400;2023-05-17T12:48:48;20.45;;;15.77;;
32196;SDS011;18697;42.770;23.400;2023-05-17T12:51:15;9.50;;;7.82;;
32196;SDS011;18697;42.770;23.400;2023-05-17T12:53:52;6.50;;;3.05;;
32196;SDS011;18697;42.770;23.400;2023-05-17T12:56:22;5.07;;;2.67;;
32196;SDS011;18697;42.770;23.400;2023-05-17T12:59:10;4.93;;;2.90;;
32196;SDS011;18697;42.770;23.400;2023-05-17T13:01:38;6.28;;;2.67;;
32196;SDS011;18697;42.770;23.400;2023-05-17T13:04:11;10.18;;;2.60;;
32196;SDS011;18697;42.770;23.400;2023-05-17T13:06:55;8.98;;;2.70;;
32196;SDS011;18697;42.770;23.400;2023-05-17T13:09:22;8.77;;;3.20;;
32196;SDS011;18697;42.770;23.400;2023-05-17T13:14:38;12.13;;;3.17;;
32196;SDS011;18697;42.770;23.400;2023-05-17T13:17:10;5.07;;;2.85;;
32196;SDS011;18697;42.770;23.400;2023-05-17T13:19:37;6.15;;;2.40;;
32196;SDS011;18697;42.770;23.400;2023-05-17T13:22:03;7.93;;;3.10;;
32196;SDS011;18697;42.770;23.400;2023-05-17T13:24:32;6.88;;;2.90;;
32196;SDS011;18697;42.770;23.400;2023-05-17T13:26:58;9.23;;;2.67;;
32196;SDS011;18697;42.770;23.400;2023-05-17T13:29:23;10.35;;;2.97;;
32196;SDS011;18697;42.770;23.400;2023-05-17T13:31:49;11.40;;;3.40;;
32196;SDS011;18697;42.770;23.400;2023-05-17T13:34:17;6.53;;;2.70;;
32196;SDS011;18697;42.770;23.400;2023-05-17T13:36:45;8.38;;;3.50;;
32196;SDS011;18697;42.770;23.400;2023-05-17T13:39:14;6.20;;;3.40;;
32196;SDS011;18697;42.770;23.400;2023-05-17T13:41:39;7.68;;;3.13;;
32196;SDS011;18697;42.770;23.400;2023-05-17T13:44:05;11.07;;;3.67;;
32196;SDS011;18697;42.770;23.400;2023-05-17T13:46:31;8.32;;;3.03;;
32196;SDS011;18697;42.770;23.400;2023-05-17T13:48:57;6.13;;;2.90;;
32196;SDS011;18697;42.770;23.400;2023-05-17T13:51:22;11.30;;;3.35;;
32196;SDS011;18697;42.770;23.400;2023-05-17T13:53:49;6.35;;;2.60;;
32196;SDS011;18697;42.770;23.400;2023-05-17T13:56:15;7.50;;;3.17;;
32196;SDS011;18697;42.770;23.400;2023-05-17T13:58:41;5.10;;;3.33;;
32196;SDS011;18697;42.770;23.400;2023-05-17T14:01:07;9.10;;;3.00;;
32196;SDS011;18697;42.770;23.400;2023-05-17T14:03:32;6.93;;;3.13;;
32196;SDS011;18697;42.770;23.400;2023-05-17T14:05:58;5.25;;;3.20;;
32196;SDS011;18697;42.770;23.400;2023-05-17T14:08:24;8.73;;;3.15;;
32196;SDS011;18697;42.770;23.400;2023-05-17T14:10:49;7.95;;;3.38;;
32196;SDS011;18697;42.770;23.400;2023-05-17T14:13:15;5.40;;;2.80;;
32196;SDS011;18697;42.770;23.400;2023-05-17T14:15:40;7.80;;;3.50;;
32196;SDS011;18697;42.770;23.400;2023-05-17T14:18:06;7.35;;;3.22;;
32196;SDS011;18697;42.770;23.400;2023-05-17T14:20:33;3.67;;;2.80;;
32196;SDS011;18697;42.770;23.400;2023-05-17T14:22:59;5.82;;;3.13;;
32196;SDS011;18697;42.770;23.400;2023-05-17T14:25:25;8.38;;;2.95;;
32196;SDS011;18697;42.770;23.400;2023-05-17T14:27:51;7.25;;;3.30;;
32196;SDS011;18697;42.770;23.400;2023-05-17T14:30:17;7.78;;;3.63;;
32196;SDS011;18697;42.770;23.400;2023-05-17T14:32:43;7.03;;;3.03;;
32196;SDS011;18697;42.770;23.400;2023-05-17T14:35:09;5.53;;;2.92;;
32196;SDS011;18697;42.770;23.400;2023-05-17T14:37:35;5.78;;;2.92;;
32196;SDS011;18697;42.770;23.400;2023-05-17T14:40:00;7.68;;;2.80;;
32196;SDS011;18697;42.770;23.400;2023-05-17T14:42:26;9.27;;;3.03;;
32196;SDS011;18697;42.770;23.400;2023-05-17T14:44:52;6.35;;;2.38;;
32196;SDS011;18697;42.770;23.400;2023-05-17T14:47:17;11.13;;;3.55;;
32196;SDS011;18697;42.770;23.400;2023-05-17T14:49:45;5.05;;;2.90;;
32196;SDS011;18697;42.770;23.400;2023-05-17T14:52:11;5.15;;;2.65;;
32196;SDS011;18697;42.770;23.400;2023-05-17T14:54:37;5.25;;;3.20;;
32196;SDS011;18697;42.770;23.400;2023-05-17T14:57:03;12.85;;;3.65;;
32196;SDS011;18697;42.770;23.400;2023-05-17T14:59:29;7.55;;;2.95;;